sensor_id;sensor_type;location;lat;lon;timestamp;P1;durP1;ratioP1;P2;durP2;ratioP2
49824;SDS011;35714;55.708;37.478;2023-04-15T00:00:08;2.53;;;0.90;;
49824;SDS011;35714;55.708;37.478;2023-04-15T00:02:43;3.05;;;1.23;;
49824;SDS011;35714;55.708;37.478;2023-04-15T00:05:08;2.50;;;0.90;;
49824;SDS011;35714;55.708;37.478;2023-04-15T00:07:35;4.82;;;1.33;;
49824;SDS011;35714;55.708;37.478;2023-04-15T00:10:00;3.38;;;0.80;;
49824;SDS011;35714;55.708;37.478;2023-04-15T00:12:26;3.47;;;0.80;;
49824;SDS011;35714;55.708;37.478;2023-04-15T00:14:52;2.53;;;0.98;;
49824;SDS011;35714;55.708;37.478;2023-04-15T00:17:19;3.80;;;1.08;;
49824;SDS011;35714;55.708;37.478;2023-04-15T00:19:44;5.20;;;1.33;;
49824;SDS011;35714;55.708;37.478;2023-04-15T00:22:10;3.60;;;1.05;;
49824;SDS011;35714;55.708;37.478;2023-04-15T00:24:37;2.22;;;0.75;;
49824;SDS011;35714;55.708;37.478;2023-04-15T00:27:02;5.70;;;1.08;;
49824;SDS011;35714;55.708;37.478;2023-04-15T00:29:29;3.53;;;1.05;;
49824;SDS011;35714;55.708;37.478;2023-04-15T00:31:55;3.97;;;0.80;;
49824;SDS011;35714;55.708;37.478;2023-04-15T00:34:24;3.10;;;0.95;;
49824;SDS011;35714;55.708;37.478;2023-04-15T00:36:52;1.98;;;0.70;;
49824;SDS011;35714;55.708;37.478;2023-04-15T00:39:18;2.58;;;0.80;;
49824;SDS011;35714;55.708;37.478;2023-04-15T00:41:44;2.83;;;0.70;;
49824;SDS011;35714;55.708;37.478;2023-04-15T00:44:11;4.00;;;1.10;;
49824;SDS011;35714;55.708;37.478;2023-04-15T00:46:37;5.13;;;1.00;;
49824;SDS011;35714;55.708;37.478;2023-04-15T00:49:04;3.22;;;0.80;;
49824;SDS011;35714;55.708;37.478;2023-04-15T00:51:34;5.10;;;1.08;;
49824;SDS011;35714;55.708;37.478;2023-04-15T00:54:04;3.92;;;1.02;;
49824;SDS011;35714;55.708;37.478;2023-04-15T00:56:35;2.97;;;0.70;;
49824;SDS011;35714;55.708;37.478;2023-04-15T00:59:03;3.50;;;0.70;;
49824;SDS011;35714;55.708;37.478;2023-04-15T01:01:30;2.35;;;0.80;;
49824;SDS011;35714;55.708;37.478;2023-04-15T01:03:57;4.10;;;0.98;;
49824;SDS011;35714;55.708;37.478;2023-04-15T01:06:23;2.85;;;0.70;;
49824;SDS011;35714;55.708;37.478;2023-04-15T01:08:49;3.58;;;0.85;;
49824;SDS011;35714;55.708;37.478;2023-04-15T01:11:15;3.83;;;0.77;;
49824;SDS011;35714;55.708;37.478;2023-04-15T01:13:42;5.93;;;1.10;;
49824;SDS011;35714;55.708;37.478;2023-04-15T01:16:08;7.20;;;0.82;;
49824;SDS011;35714;55.708;37.478;2023-04-15T01:18:34;5.10;;;0.93;;
49824;SDS011;35714;55.708;37.478;2023-04-15T01:21:02;4.40;;;0.88;;
49824;SDS011;35714;55.708;37.478;2023-04-15T01:23:30;5.80;;;1.00;;
49824;SDS011;35714;55.708;37.478;2023-04-15T01:25:56;5.35;;;1.02;;
49824;SDS011;35714;55.708;37.478;2023-04-15T01:28:23;4.50;;;0.93;;
49824;SDS011;35714;55.708;37.478;2023-04-15T01:30:49;3.78;;;1.15;;
49824;SDS011;35714;55.708;37.478;2023-04-15T01:33:15;2.85;;;0.60;;
49824;SDS011;35714;55.708;37.478;2023-04-15T01:35:59;4.60;;;0.88;;
49824;SDS011;35714;55.708;37.478;2023-04-15T01:38:25;1.70;;;0.50;;
49824;SDS011;35714;55.708;37.478;2023-04-15T01:40:52;3.75;;;0.82;;
49824;SDS011;35714;55.708;37.478;2023-04-15T01:43:19;3.15;;;0.90;;
49824;SDS011;35714;55.708;37.478;2023-04-15T01:45:46;3.90;;;0.75;;
49824;SDS011;35714;55.708;37.478;2023-04-15T01:48:13;4.47;;;1.17;;
49824;SDS011;35714;55.708;37.478;2023-04-15T01:50:40;3.88;;;1.35;;
49824;SDS011;35714;55.708;37.478;2023-04-15T01:53:07;2.38;;;1.00;;
49824;SDS011;35714;55.708;37.478;2023-04-15T01:55:34;4.03;;;1.17;;
49824;SDS011;35714;55.708;37.478;2023-04-15T01:58:01;3.80;;;1.00;;
49824;SDS011;35714;55.708;37.478;2023-04-15T02:00:28;4.13;;;1.00;;
49824;SDS011;35714;55.708;37.478;2023-04-15T02:02:56;11.82;;;0.95;;
49824;SDS011;35714;55.708;37.478;2023-04-15T02:05:25;4.30;;;1.10;;
49824;SDS011;35714;55.708;37.478;2023-04-15T02:07:52;9.68;;;1.67;;
49824;SDS011;35714;55.708;37.478;2023-04-15T02:10:19;2.95;;;0.93;;
49824;SDS011;35714;55.708;37.478;2023-04-15T02:12:46;4.03;;;1.10;;
49824;SDS011;35714;55.708;37.478;2023-04-15T02:15:13;8.25;;;1.67;;
49824;SDS011;35714;55.708;37.478;2023-04-15T02:17:41;2.60;;;0.90;;
49824;SDS011;35714;55.708;37.478;2023-04-15T02:20:11;2.65;;;0.80;;
49824;SDS011;35714;55.708;37.478;2023-04-15T02:22:38;5.43;;;1.58;;
49824;SDS011;35714;55.708;37.478;2023-04-15T02:25:04;4.30;;;1.00;;
49824;SDS011;35714;55.708;37.478;2023-04-15T02:27:32;6.13;;;1.52;;
49824;SDS011;35714;55.708;37.478;2023-04-15T02:29:59;2.60;;;0.90;;
49824;SDS011;35714;55.708;37.478;2023-04-15T02:32:26;3.50;;;0.90;;
49824;SDS011;35714;55.708;37.478;2023-04-15T02:34:55;4.07;;;0.82;;
49824;SDS011;35714;55.708;37.478;2023-04-15T02:37:22;4.72;;;1.05;;
49824;SDS011;35714;55.708;37.478;2023-04-15T02:39:50;2.55;;;0.88;;
49824;SDS011;35714;55.708;37.478;2023-04-15T02:42:18;5.38;;;1.10;;
49824;SDS011;35714;55.708;37.478;2023-04-15T02:44:47;3.15;;;1.08;;
49824;SDS011;35714;55.708;37.478;2023-04-15T02:47:15;4.72;;;1.25;;
49824;SDS011;35714;55.708;37.478;2023-04-15T02:49:42;6.90;;;1.30;;
49824;SDS011;35714;55.708;37.478;2023-04-15T02:52:09;5.53;;;1.13;;
49824;SDS011;35714;55.708;37.478;2023-04-15T02:54:36;5.88;;;1.10;;
49824;SDS011;35714;55.708;37.478;2023-04-15T02:57:03;3.15;;;0.90;;
49824;SDS011;35714;55.708;37.478;2023-04-15T02:59:32;3.38;;;0.60;;
49824;SDS011;35714;55.708;37.478;2023-04-15T03:01:59;3.17;;;1.00;;
49824;SDS011;35714;55.708;37.478;2023-04-15T03:04:26;4.20;;;0.85;;
49824;SDS011;35714;55.708;37.478;2023-04-15T03:06:55;3.80;;;0.90;;
49824;SDS011;35714;55.708;37.478;2023-04-15T03:09:23;3.53;;;1.35;;
49824;SDS011;35714;55.708;37.478;2023-04-15T03:11:50;3.22;;;1.08;;
49824;SDS011;35714;55.708;37.478;2023-04-15T03:14:19;4.43;;;1.23;;
49824;SDS011;35714;55.708;37.478;2023-04-15T03:16:47;3.78;;;1.20;;
49824;SDS011;35714;55.708;37.478;2023-04-15T03:19:16;4.82;;;0.90;;
49824;SDS011;35714;55.708;37.478;2023-04-15T03:21:43;4.15;;;1.10;;
49824;SDS011;35714;55.708;37.478;2023-04-15T03:24:11;3.45;;;1.10;;
49824;SDS011;35714;55.708;37.478;2023-04-15T03:26:37;3.97;;;1.23;;
49824;SDS011;35714;55.708;37.478;2023-04-15T03:29:10;3.53;;;0.80;;
49824;SDS011;35714;55.708;37.478;2023-04-15T03:31:39;6.07;;;0.88;;
49824;SDS011;35714;55.708;37.478;2023-04-15T03:34:06;5.45;;;1.80;;
49824;SDS011;35714;55.708;37.478;2023-04-15T03:36:33;4.60;;;0.85;;
49824;SDS011;35714;55.708;37.478;2023-04-15T03:39:00;2.90;;;1.02;;
49824;SDS011;35714;55.708;37.478;2023-04-15T03:41:27;5.57;;;0.93;;
49824;SDS011;35714;55.708;37.478;2023-04-15T03:43:54;3.22;;;1.15;;
49824;SDS011;35714;55.708;37.478;2023-04-15T03:46:21;4.40;;;0.90;;
49824;SDS011;35714;55.708;37.478;2023-04-15T03:48:47;5.03;;;1.27;;
49824;SDS011;35714;55.708;37.478;2023-04-15T03:51:14;4.43;;;1.10;;
49824;SDS011;35714;55.708;37.478;2023-04-15T03:53:41;2.35;;;0.77;;
49824;SDS011;35714;55.708;37.478;2023-04-15T03:56:08;4.32;;;0.82;;
49824;SDS011;35714;55.708;37.478;2023-04-15T03:58:35;4.10;;;1.17;;
49824;SDS011;35714;55.708;37.478;2023-04-15T04:01:02;4.00;;;1.15;;
49824;SDS011;35714;55.708;37.478;2023-04-15T04:03:28;4.57;;;1.10;;
49824;SDS011;35714;55.708;37.478;2023-04-15T04:05:55;3.25;;;1.20;;
49824;SDS011;35714;55.708;37.478;2023-04-15T04:08:22;4.80;;;1.13;;
49824;SDS011;35714;55.708;37.478;2023-04-15T04:10:49;3.08;;;1.10;;
49824;SDS011;35714;55.708;37.478;2023-04-15T04:13:16;6.43;;;1.23;;
49824;SDS011;35714;55.708;37.478;2023-04-15T04:15:42;4.30;;;1.00;;
49824;SDS011;35714;55.708;37.478;2023-04-15T04:18:09;5.38;;;0.93;;
49824;SDS011;35714;55.708;37.478;2023-04-15T04:20:36;4.18;;;1.02;;
49824;SDS011;35714;55.708;37.478;2023-04-15T04:23:03;2.80;;;0.93;;
49824;SDS011;35714;55.708;37.478;2023-04-15T04:25:30;2.63;;;0.85;;
49824;SDS011;35714;55.708;37.478;2023-04-15T04:27:58;3.70;;;1.13;;
49824;SDS011;35714;55.708;37.478;2023-04-15T04:30:24;4.60;;;0.90;;
49824;SDS011;35714;55.708;37.478;2023-04-15T04:32:51;3.28;;;0.90;;
49824;SDS011;35714;55.708;37.478;2023-04-15T04:35:18;4.68;;;0.95;;
49824;SDS011;35714;55.708;37.478;2023-04-15T04:37:46;3.45;;;1.17;;
49824;SDS011;35714;55.708;37.478;2023-04-15T04:40:13;2.97;;;0.70;;
49824;SDS011;35714;55.708;37.478;2023-04-15T04:42:40;6.60;;;1.00;;
49824;SDS011;35714;55.708;37.478;2023-04-15T04:45:07;3.33;;;1.00;;
49824;SDS011;35714;55.708;37.478;2023-04-15T04:47:34;8.27;;;1.05;;
49824;SDS011;35714;55.708;37.478;2023-04-15T04:50:01;3.00;;;0.95;;
49824;SDS011;35714;55.708;37.478;2023-04-15T04:52:28;3.47;;;1.27;;
49824;SDS011;35714;55.708;37.478;2023-04-15T04:54:55;5.22;;;1.10;;
49824;SDS011;35714;55.708;37.478;2023-04-15T04:57:22;4.63;;;1.40;;
49824;SDS011;35714;55.708;37.478;2023-04-15T04:59:49;5.60;;;0.98;;
49824;SDS011;35714;55.708;37.478;2023-04-15T05:02:16;6.13;;;1.20;;
49824;SDS011;35714;55.708;37.478;2023-04-15T05:04:43;3.47;;;0.98;;
49824;SDS011;35714;55.708;37.478;2023-04-15T05:07:10;6.97;;;1.90;;
49824;SDS011;35714;55.708;37.478;2023-04-15T05:09:36;4.82;;;2.08;;
49824;SDS011;35714;55.708;37.478;2023-04-15T05:12:03;6.32;;;1.58;;
49824;SDS011;35714;55.708;37.478;2023-04-15T05:14:30;6.65;;;1.52;;
49824;SDS011;35714;55.708;37.478;2023-04-15T05:16:57;5.10;;;1.05;;
49824;SDS011;35714;55.708;37.478;2023-04-15T05:19:24;4.18;;;1.73;;
49824;SDS011;35714;55.708;37.478;2023-04-15T05:21:51;6.82;;;1.80;;
49824;SDS011;35714;55.708;37.478;2023-04-15T05:24:18;6.40;;;1.77;;
49824;SDS011;35714;55.708;37.478;2023-04-15T05:26:45;7.07;;;2.28;;
49824;SDS011;35714;55.708;37.478;2023-04-15T05:29:11;4.32;;;1.30;;
49824;SDS011;35714;55.708;37.478;2023-04-15T05:31:38;4.72;;;2.00;;
49824;SDS011;35714;55.708;37.478;2023-04-15T05:34:06;6.95;;;1.20;;
49824;SDS011;35714;55.708;37.478;2023-04-15T05:36:33;7.00;;;1.50;;
49824;SDS011;35714;55.708;37.478;2023-04-15T05:39:00;8.32;;;2.60;;
49824;SDS011;35714;55.708;37.478;2023-04-15T05:41:27;6.80;;;3.13;;
49824;SDS011;35714;55.708;37.478;2023-04-15T05:43:54;7.07;;;1.95;;
49824;SDS011;35714;55.708;37.478;2023-04-15T05:46:21;8.93;;;2.75;;
49824;SDS011;35714;55.708;37.478;2023-04-15T05:48:48;8.95;;;2.30;;
49824;SDS011;35714;55.708;37.478;2023-04-15T05:51:14;9.90;;;2.50;;
49824;SDS011;35714;55.708;37.478;2023-04-15T05:53:42;5.47;;;1.77;;
49824;SDS011;35714;55.708;37.478;2023-04-15T05:56:08;4.43;;;1.63;;
49824;SDS011;35714;55.708;37.478;2023-04-15T05:58:35;14.25;;;1.65;;
49824;SDS011;35714;55.708;37.478;2023-04-15T06:01:02;5.88;;;1.70;;
49824;SDS011;35714;55.708;37.478;2023-04-15T06:03:29;3.97;;;1.35;;
49824;SDS011;35714;55.708;37.478;2023-04-15T06:05:56;4.55;;;1.58;;
49824;SDS011;35714;55.708;37.478;2023-04-15T06:08:23;6.43;;;1.52;;
49824;SDS011;35714;55.708;37.478;2023-04-15T06:10:50;6.63;;;1.23;;
49824;SDS011;35714;55.708;37.478;2023-04-15T06:13:17;7.55;;;1.20;;
49824;SDS011;35714;55.708;37.478;2023-04-15T06:15:43;4.15;;;1.33;;
49824;SDS011;35714;55.708;37.478;2023-04-15T06:18:10;5.28;;;1.20;;
49824;SDS011;35714;55.708;37.478;2023-04-15T06:20:37;5.88;;;0.98;;
49824;SDS011;35714;55.708;37.478;2023-04-15T06:23:04;5.97;;;1.50;;
49824;SDS011;35714;55.708;37.478;2023-04-15T06:25:31;3.75;;;0.90;;
49824;SDS011;35714;55.708;37.478;2023-04-15T06:27:58;7.40;;;1.90;;
49824;SDS011;35714;55.708;37.478;2023-04-15T06:30:25;5.55;;;1.50;;
49824;SDS011;35714;55.708;37.478;2023-04-15T06:32:51;2.80;;;1.13;;
49824;SDS011;35714;55.708;37.478;2023-04-15T06:35:18;6.68;;;1.45;;
49824;SDS011;35714;55.708;37.478;2023-04-15T06:37:45;5.43;;;1.13;;
49824;SDS011;35714;55.708;37.478;2023-04-15T06:40:12;4.70;;;1.35;;
49824;SDS011;35714;55.708;37.478;2023-04-15T06:42:39;5.88;;;2.05;;
49824;SDS011;35714;55.708;37.478;2023-04-15T06:45:07;5.93;;;1.83;;
49824;SDS011;35714;55.708;37.478;2023-04-15T06:47:34;7.30;;;1.30;;
49824;SDS011;35714;55.708;37.478;2023-04-15T06:50:01;3.63;;;1.08;;
49824;SDS011;35714;55.708;37.478;2023-04-15T06:52:30;6.90;;;1.30;;
49824;SDS011;35714;55.708;37.478;2023-04-15T06:54:57;6.95;;;1.58;;
49824;SDS011;35714;55.708;37.478;2023-04-15T06:57:25;9.15;;;1.50;;
49824;SDS011;35714;55.708;37.478;2023-04-15T06:59:51;8.80;;;1.83;;
49824;SDS011;35714;55.708;37.478;2023-04-15T07:02:19;5.00;;;1.55;;
49824;SDS011;35714;55.708;37.478;2023-04-15T07:04:46;5.93;;;1.42;;
49824;SDS011;35714;55.708;37.478;2023-04-15T07:07:14;5.25;;;1.20;;
49824;SDS011;35714;55.708;37.478;2023-04-15T07:09:43;4.90;;;1.73;;
49824;SDS011;35714;55.708;37.478;2023-04-15T07:12:10;9.55;;;2.00;;
49824;SDS011;35714;55.708;37.478;2023-04-15T07:14:37;4.65;;;1.20;;
49824;SDS011;35714;55.708;37.478;2023-04-15T07:17:03;6.88;;;2.00;;
49824;SDS011;35714;55.708;37.478;2023-04-15T07:19:30;5.38;;;1.38;;
49824;SDS011;35714;55.708;37.478;2023-04-15T07:21:57;7.28;;;1.70;;
49824;SDS011;35714;55.708;37.478;2023-04-15T07:24:24;9.32;;;1.83;;
49824;SDS011;35714;55.708;37.478;2023-04-15T07:26:55;5.20;;;1.67;;
49824;SDS011;35714;55.708;37.478;2023-04-15T07:29:24;4.28;;;1.50;;
49824;SDS011;35714;55.708;37.478;2023-04-15T07:31:54;6.10;;;1.70;;
49824;SDS011;35714;55.708;37.478;2023-04-15T07:34:22;5.30;;;1.95;;
49824;SDS011;35714;55.708;37.478;2023-04-15T07:36:49;5.30;;;1.33;;
49824;SDS011;35714;55.708;37.478;2023-04-15T07:39:17;7.55;;;1.13;;
49824;SDS011;35714;55.708;37.478;2023-04-15T07:41:44;6.38;;;1.30;;
49824;SDS011;35714;55.708;37.478;2023-04-15T07:44:11;3.75;;;1.20;;
49824;SDS011;35714;55.708;37.478;2023-04-15T07:46:38;4.15;;;1.33;;
49824;SDS011;35714;55.708;37.478;2023-04-15T07:49:05;4.75;;;1.50;;
49824;SDS011;35714;55.708;37.478;2023-04-15T07:51:32;11.75;;;1.80;;
49824;SDS011;35714;55.708;37.478;2023-04-15T07:53:59;6.28;;;1.63;;
49824;SDS011;35714;55.708;37.478;2023-04-15T07:56:26;7.25;;;1.75;;
49824;SDS011;35714;55.708;37.478;2023-04-15T07:58:53;4.40;;;1.65;;
49824;SDS011;35714;55.708;37.478;2023-04-15T08:01:20;5.90;;;1.55;;
49824;SDS011;35714;55.708;37.478;2023-04-15T08:03:46;5.40;;;1.20;;
49824;SDS011;35714;55.708;37.478;2023-04-15T08:06:13;6.28;;;1.50;;
49824;SDS011;35714;55.708;37.478;2023-04-15T08:08:40;5.28;;;2.35;;
49824;SDS011;35714;55.708;37.478;2023-04-15T08:11:08;4.65;;;1.48;;
49824;SDS011;35714;55.708;37.478;2023-04-15T08:13:35;7.05;;;1.98;;
49824;SDS011;35714;55.708;37.478;2023-04-15T08:16:12;4.28;;;1.35;;
49824;SDS011;35714;55.708;37.478;2023-04-15T08:18:39;6.28;;;1.30;;
49824;SDS011;35714;55.708;37.478;2023-04-15T08:21:06;3.90;;;1.42;;
49824;SDS011;35714;55.708;37.478;2023-04-15T08:23:33;4.97;;;1.25;;
49824;SDS011;35714;55.708;37.478;2023-04-15T08:26:00;3.55;;;1.50;;
49824;SDS011;35714;55.708;37.478;2023-04-15T08:28:27;7.10;;;1.15;;
49824;SDS011;35714;55.708;37.478;2023-04-15T08:30:54;4.22;;;1.50;;
49824;SDS011;35714;55.708;37.478;2023-04-15T08:33:21;6.32;;;1.52;;
49824;SDS011;35714;55.708;37.478;2023-04-15T08:35:48;8.77;;;1.30;;
49824;SDS011;35714;55.708;37.478;2023-04-15T08:38:15;5.35;;;1.27;;
49824;SDS011;35714;55.708;37.478;2023-04-15T08:40:45;3.58;;;1.58;;
49824;SDS011;35714;55.708;37.478;2023-04-15T08:43:14;3.25;;;1.23;;
49824;SDS011;35714;55.708;37.478;2023-04-15T08:45:47;3.92;;;1.60;;
49824;SDS011;35714;55.708;37.478;2023-04-15T08:48:17;5.43;;;1.38;;
49824;SDS011;35714;55.708;37.478;2023-04-15T08:50:45;4.70;;;1.60;;
49824;SDS011;35714;55.708;37.478;2023-04-15T08:53:13;8.88;;;1.50;;
49824;SDS011;35714;55.708;37.478;2023-04-15T08:55:42;3.80;;;1.52;;
49824;SDS011;35714;55.708;37.478;2023-04-15T08:58:11;5.13;;;1.50;;
49824;SDS011;35714;55.708;37.478;2023-04-15T09:00:39;7.22;;;2.50;;
49824;SDS011;35714;55.708;37.478;2023-04-15T09:03:07;6.68;;;1.80;;
49824;SDS011;35714;55.708;37.478;2023-04-15T09:05:35;11.02;;;1.83;;
49824;SDS011;35714;55.708;37.478;2023-04-15T09:08:03;7.32;;;2.58;;
49824;SDS011;35714;55.708;37.478;2023-04-15T09:10:31;4.60;;;1.80;;
49824;SDS011;35714;55.708;37.478;2023-04-15T09:12:59;5.68;;;1.45;;
49824;SDS011;35714;55.708;37.478;2023-04-15T09:15:27;6.65;;;1.80;;
49824;SDS011;35714;55.708;37.478;2023-04-15T09:17:55;6.53;;;1.55;;
49824;SDS011;35714;55.708;37.478;2023-04-15T09:20:22;10.02;;;1.75;;
49824;SDS011;35714;55.708;37.478;2023-04-15T09:22:49;4.13;;;1.27;;
49824;SDS011;35714;55.708;37.478;2023-04-15T09:27:51;6.53;;;1.70;;
49824;SDS011;35714;55.708;37.478;2023-04-15T09:30:18;4.97;;;1.65;;
49824;SDS011;35714;55.708;37.478;2023-04-15T09:35:17;5.03;;;1.52;;
49824;SDS011;35714;55.708;37.478;2023-04-15T09:37:44;8.02;;;1.73;;
49824;SDS011;35714;55.708;37.478;2023-04-15T09:40:11;5.68;;;1.08;;
49824;SDS011;35714;55.708;37.478;2023-04-15T09:42:54;8.05;;;1.38;;
49824;SDS011;35714;55.708;37.478;2023-04-15T09:45:21;9.07;;;1.90;;
49824;SDS011;35714;55.708;37.478;2023-04-15T09:47:49;5.55;;;2.33;;
49824;SDS011;35714;55.708;37.478;2023-04-15T09:50:19;3.75;;;1.50;;
49824;SDS011;35714;55.708;37.478;2023-04-15T09:52:46;5.20;;;1.70;;
49824;SDS011;35714;55.708;37.478;2023-04-15T09:55:13;4.80;;;1.77;;
49824;SDS011;35714;55.708;37.478;2023-04-15T09:57:41;6.07;;;1.67;;
49824;SDS011;35714;55.708;37.478;2023-04-15T10:00:09;7.80;;;1.33;;
49824;SDS011;35714;55.708;37.478;2023-04-15T10:02:37;6.50;;;1.70;;
49824;SDS011;35714;55.708;37.478;2023-04-15T10:05:06;5.97;;;1.73;;
49824;SDS011;35714;55.708;37.478;2023-04-15T10:07:36;11.55;;;2.05;;
49824;SDS011;35714;55.708;37.478;2023-04-15T10:10:04;7.78;;;2.00;;
49824;SDS011;35714;55.708;37.478;2023-04-15T10:12:32;10.68;;;2.10;;
49824;SDS011;35714;55.708;37.478;2023-04-15T10:15:02;5.50;;;2.08;;
49824;SDS011;35714;55.708;37.478;2023-04-15T10:17:31;4.25;;;1.70;;
49824;SDS011;35714;55.708;37.478;2023-04-15T10:20:01;6.97;;;1.63;;
49824;SDS011;35714;55.708;37.478;2023-04-15T10:22:34;8.65;;;1.95;;
49824;SDS011;35714;55.708;37.478;2023-04-15T10:25:02;8.90;;;3.15;;
49824;SDS011;35714;55.708;37.478;2023-04-15T10:27:29;5.85;;;2.10;;
49824;SDS011;35714;55.708;37.478;2023-04-15T10:30:02;8.95;;;1.80;;
49824;SDS011;35714;55.708;37.478;2023-04-15T10:32:57;5.68;;;1.70;;
49824;SDS011;35714;55.708;37.478;2023-04-15T10:35:48;3.47;;;1.38;;
49824;SDS011;35714;55.708;37.478;2023-04-15T10:41:18;4.57;;;1.42;;
49824;SDS011;35714;55.708;37.478;2023-04-15T10:43:49;6.70;;;2.38;;
49824;SDS011;35714;55.708;37.478;2023-04-15T10:46:22;8.95;;;2.85;;
49824;SDS011;35714;55.708;37.478;2023-04-15T10:48:51;5.32;;;2.00;;
49824;SDS011;35714;55.708;37.478;2023-04-15T10:51:25;7.10;;;1.73;;
49824;SDS011;35714;55.708;37.478;2023-04-15T10:54:00;5.55;;;2.35;;
49824;SDS011;35714;55.708;37.478;2023-04-15T10:56:28;8.32;;;2.40;;
49824;SDS011;35714;55.708;37.478;2023-04-15T10:58:57;5.40;;;2.60;;
49824;SDS011;35714;55.708;37.478;2023-04-15T11:04:56;4.45;;;1.83;;
49824;SDS011;35714;55.708;37.478;2023-04-15T11:07:34;4.85;;;2.05;;
49824;SDS011;35714;55.708;37.478;2023-04-15T11:10:02;6.07;;;2.38;;
49824;SDS011;35714;55.708;37.478;2023-04-15T11:12:34;5.72;;;1.70;;
49824;SDS011;35714;55.708;37.478;2023-04-15T11:17:57;3.40;;;1.50;;
49824;SDS011;35714;55.708;37.478;2023-04-15T11:20:25;5.03;;;1.50;;
49824;SDS011;35714;55.708;37.478;2023-04-15T11:22:53;9.32;;;3.33;;
49824;SDS011;35714;55.708;37.478;2023-04-15T11:27:51;3.83;;;1.80;;
49824;SDS011;35714;55.708;37.478;2023-04-15T11:30:24;7.72;;;1.80;;
49824;SDS011;35714;55.708;37.478;2023-04-15T11:33:02;7.53;;;2.10;;
49824;SDS011;35714;55.708;37.478;2023-04-15T11:35:30;5.85;;;2.30;;
49824;SDS011;35714;55.708;37.478;2023-04-15T11:38:02;5.20;;;2.78;;
49824;SDS011;35714;55.708;37.478;2023-04-15T11:40:30;7.15;;;1.98;;
49824;SDS011;35714;55.708;37.478;2023-04-15T11:43:08;5.35;;;1.40;;
49824;SDS011;35714;55.708;37.478;2023-04-15T11:48:27;6.40;;;2.10;;
49824;SDS011;35714;55.708;37.478;2023-04-15T11:50:59;7.43;;;2.08;;
49824;SDS011;35714;55.708;37.478;2023-04-15T11:53:36;7.70;;;2.70;;
49824;SDS011;35714;55.708;37.478;2023-04-15T11:56:03;4.80;;;1.60;;
49824;SDS011;35714;55.708;37.478;2023-04-15T11:58:30;4.38;;;1.95;;
49824;SDS011;35714;55.708;37.478;2023-04-15T12:00:56;5.75;;;2.83;;
49824;SDS011;35714;55.708;37.478;2023-04-15T12:08:48;6.88;;;2.42;;
49824;SDS011;35714;55.708;37.478;2023-04-15T12:11:15;4.85;;;2.10;;
49824;SDS011;35714;55.708;37.478;2023-04-15T12:13:46;10.52;;;2.72;;
49824;SDS011;35714;55.708;37.478;2023-04-15T12:16:19;5.40;;;2.08;;
49824;SDS011;35714;55.708;37.478;2023-04-15T12:18:46;6.63;;;2.30;;
49824;SDS011;35714;55.708;37.478;2023-04-15T12:21:15;4.90;;;1.63;;
49824;SDS011;35714;55.708;37.478;2023-04-15T12:23:49;9.30;;;2.00;;
49824;SDS011;35714;55.708;37.478;2023-04-15T12:26:26;6.43;;;2.00;;
49824;SDS011;35714;55.708;37.478;2023-04-15T12:29:00;7.75;;;2.90;;
49824;SDS011;35714;55.708;37.478;2023-04-15T12:31:26;5.25;;;1.67;;
49824;SDS011;35714;55.708;37.478;2023-04-15T12:33:55;4.20;;;2.05;;
49824;SDS011;35714;55.708;37.478;2023-04-15T12:36:25;5.72;;;1.70;;
49824;SDS011;35714;55.708;37.478;2023-04-15T12:38:52;4.53;;;1.95;;
49824;SDS011;35714;55.708;37.478;2023-04-15T12:41:19;4.97;;;1.52;;
49824;SDS011;35714;55.708;37.478;2023-04-15T12:43:46;4.80;;;1.95;;
49824;SDS011;35714;55.708;37.478;2023-04-15T12:46:12;5.22;;;1.35;;
49824;SDS011;35714;55.708;37.478;2023-04-15T12:48:38;3.47;;;1.35;;
49824;SDS011;35714;55.708;37.478;2023-04-15T12:51:04;7.20;;;2.00;;
49824;SDS011;35714;55.708;37.478;2023-04-15T12:53:30;7.82;;;1.70;;
49824;SDS011;35714;55.708;37.478;2023-04-15T12:55:56;10.40;;;1.98;;
49824;SDS011;35714;55.708;37.478;2023-04-15T12:58:21;3.30;;;1.42;;
49824;SDS011;35714;55.708;37.478;2023-04-15T13:00:47;4.20;;;1.67;;
49824;SDS011;35714;55.708;37.478;2023-04-15T13:03:14;5.30;;;1.75;;
49824;SDS011;35714;55.708;37.478;2023-04-15T13:05:40;6.38;;;1.58;;
49824;SDS011;35714;55.708;37.478;2023-04-15T13:08:07;8.80;;;2.10;;
49824;SDS011;35714;55.708;37.478;2023-04-15T13:10:33;5.95;;;1.83;;
49824;SDS011;35714;55.708;37.478;2023-04-15T13:13:00;6.57;;;2.10;;
49824;SDS011;35714;55.708;37.478;2023-04-15T13:15:27;4.68;;;1.40;;
49824;SDS011;35714;55.708;37.478;2023-04-15T13:17:53;6.22;;;1.85;;
49824;SDS011;35714;55.708;37.478;2023-04-15T13:20:19;3.70;;;1.65;;
49824;SDS011;35714;55.708;37.478;2023-04-15T13:22:45;3.85;;;1.27;;
49824;SDS011;35714;55.708;37.478;2023-04-15T13:25:11;5.70;;;1.80;;
49824;SDS011;35714;55.708;37.478;2023-04-15T13:27:37;5.55;;;1.67;;
49824;SDS011;35714;55.708;37.478;2023-04-15T13:30:03;5.68;;;1.85;;
49824;SDS011;35714;55.708;37.478;2023-04-15T13:32:30;8.73;;;2.20;;
49824;SDS011;35714;55.708;37.478;2023-04-15T13:34:55;4.28;;;1.65;;
49824;SDS011;35714;55.708;37.478;2023-04-15T13:37:25;7.38;;;1.55;;
49824;SDS011;35714;55.708;37.478;2023-04-15T13:39:55;8.07;;;1.80;;
49824;SDS011;35714;55.708;37.478;2023-04-15T13:42:21;6.07;;;1.40;;
49824;SDS011;35714;55.708;37.478;2023-04-15T13:44:48;7.05;;;2.10;;
49824;SDS011;35714;55.708;37.478;2023-04-15T13:47:18;3.72;;;1.45;;
49824;SDS011;35714;55.708;37.478;2023-04-15T13:49:44;4.53;;;1.38;;
49824;SDS011;35714;55.708;37.478;2023-04-15T13:52:10;8.23;;;1.48;;
49824;SDS011;35714;55.708;37.478;2023-04-15T13:54:36;6.35;;;1.77;;
49824;SDS011;35714;55.708;37.478;2023-04-15T13:57:02;4.93;;;1.48;;
49824;SDS011;35714;55.708;37.478;2023-04-15T13:59:28;4.53;;;1.50;;
49824;SDS011;35714;55.708;37.478;2023-04-15T14:01:54;3.72;;;1.15;;
49824;SDS011;35714;55.708;37.478;2023-04-15T14:04:19;6.82;;;1.83;;
49824;SDS011;35714;55.708;37.478;2023-04-15T14:06:45;6.60;;;1.38;;
49824;SDS011;35714;55.708;37.478;2023-04-15T14:09:11;3.78;;;1.50;;
49824;SDS011;35714;55.708;37.478;2023-04-15T14:11:39;7.00;;;1.80;;
49824;SDS011;35714;55.708;37.478;2023-04-15T14:14:05;6.82;;;1.65;;
49824;SDS011;35714;55.708;37.478;2023-04-15T14:16:31;4.10;;;1.70;;
49824;SDS011;35714;55.708;37.478;2023-04-15T14:18:57;3.88;;;1.25;;
49824;SDS011;35714;55.708;37.478;2023-04-15T14:21:23;5.75;;;1.50;;
49824;SDS011;35714;55.708;37.478;2023-04-15T14:23:50;4.75;;;1.38;;
49824;SDS011;35714;55.708;37.478;2023-04-15T14:26:16;8.10;;;1.55;;
49824;SDS011;35714;55.708;37.478;2023-04-15T14:28:41;5.32;;;1.70;;
49824;SDS011;35714;55.708;37.478;2023-04-15T14:31:09;6.88;;;1.65;;
49824;SDS011;35714;55.708;37.478;2023-04-15T14:33:35;4.05;;;1.30;;
49824;SDS011;35714;55.708;37.478;2023-04-15T14:36:01;7.53;;;1.50;;
49824;SDS011;35714;55.708;37.478;2023-04-15T14:38:26;6.40;;;1.65;;
49824;SDS011;35714;55.708;37.478;2023-04-15T14:40:52;3.20;;;1.30;;
49824;SDS011;35714;55.708;37.478;2023-04-15T14:43:19;4.35;;;1.50;;
49824;SDS011;35714;55.708;37.478;2023-04-15T14:45:45;4.82;;;2.08;;
49824;SDS011;35714;55.708;37.478;2023-04-15T14:48:10;4.88;;;1.60;;
49824;SDS011;35714;55.708;37.478;2023-04-15T14:50:37;5.57;;;2.00;;
49824;SDS011;35714;55.708;37.478;2023-04-15T14:53:03;5.38;;;2.10;;
49824;SDS011;35714;55.708;37.478;2023-04-15T14:55:28;6.95;;;1.88;;
49824;SDS011;35714;55.708;37.478;2023-04-15T14:57:54;6.25;;;1.98;;
49824;SDS011;35714;55.708;37.478;2023-04-15T15:00:20;8.13;;;2.35;;